AirNav   Pilot Hours Calculator
 
 1026 users online  

60PN Jefferson Hospital Heliport
Large, Pennsylvania, USA

GOING TO LARGE?


FAA INFORMATION EFFECTIVE 02 JANUARY 2020

Location

FAA Identifier: 60PN
Lat/Long: 40-19-05.5500N 079-56-02.5800W
40-19.092500N 079-56.043000W
40.3182083,-79.9340500
(estimated)
Elevation: 1156 ft. / 352 m (estimated)
Variation: 08W (1985)
From city: 4 miles NNW of LARGE, PA
Time zone: UTC -5 (UTC -4 during Daylight Saving Time)
Zip code: 15122

Heliport Operations

Heliport use: Private use, MEDICAL USE.
Activation date: 12/1980
Control tower: no
ARTCC: CLEVELAND CENTER
FSS: ALTOONA FLIGHT SERVICE STATION
Attendance: CONTINUOUS
Wind indicator: yes
Segmented circle: yes

Heliport Communications

WX ASOS at AGC (2.2 nm N): 120.55 (412-466-8968)
WX AWOS-3 at FWQ (8 nm SE): 118.475 (724-379-5815)
WX AWOS-A at 42PN (9 nm N): PHONE 412-442-2213
WX ASOS at PIT (17 nm NW): PHONE 412-472-0145
WX AWOS-3PT at AFJ (20 nm SW): 119.175 (724-228-3529)

Nearby radio navigation aids

VOR radial/distance  VOR name  Freq  Var
AGCr073/5.4ALLEGHENY VOR/DME110.0009W
HLGr090/29.3WHEELING VOR/DME112.2007W
EWCr165/32.9ELLWOOD CITY VOR/DME115.8008W
IHDr314/33.5INDIAN HEAD VORTAC108.2006W

Heliport Services

Runway Information

Helipad H1

Dimensions: 70 x 70 ft. / 21 x 21 m
Surface: asphalt
Latitude: 40-19.092500N
Longitude: 079-56.043000W
Elevation: 1156.0 ft.
Traffic pattern: leftleft

Heliport Ownership and Management from official FAA records

Ownership: Privately-owned
Owner: JEFFERSON REGIONAL MEDICAL CENTER
COAL VALLEY RD, PO BOX 18119
PITTSBURGH, PA 15236
Phone 412-469-5000
EXTN 12.
Manager: RICHARD J. PREFFER
565 COAL VALLEY ROAD
PITTSBURGH, PA 15236
Phone (412) 469-5078

Heliport Operational Statistics

Aircraft based on the field: 1
Helicopters: 1
    

Additional Remarks

FOR CD CTC PITTSBURGH APCH AT 412-472-5591

Instrument Procedures

There are no published instrument procedures at 60PN.

Some nearby airports with instrument procedures:

KAGC - Allegheny County Airport (2 nm N)
G05 - Finleyville Airpark (6 nm SW)
KFWQ - Rostraver Airport (8 nm SE)
KPIT - Pittsburgh International Airport (17 nm NW)
KAFJ - Washington County Airport (20 nm SW)
 
Loc | Ops | Rwys | IFR | FBO | Links
Com | Nav | Svcs | Stats | Notes
Area around 60PN (Jefferson Hospital Heliport)
 
Road maps at: MapQuest Bing Google
 
Aerial photo
No photo
 
Sectional chart

 
Airport distance calculator
Flying to Jefferson Hospital Heliport? Find the distance to fly.

From to 60PN

Sunrise and sunset
Times for 21-Jan-2020
 Local
(UTC-5)
 Zulu
(UTC)
Morning civil twilight07:0912:09
Sunrise07:3912:39
Sunset17:2422:24
Evening civil twilight17:5322:53

Current date and time
Zulu (UTC)  22-Jan-2020 02:10:05
Local (UTC-5)  21-Jan-2020 21:10:05
 
METAR
KAGC 
2nm NE 
220153Z 00000KT 10SM CLR M07/M12 A3048 RMK AO2 SLP348 T10671117
KP53 
8nm SE 
220156Z AUTO 20012G26KT M06/M12 A3009 RMK AO1 PK WND 19028/0121 SLP204 T10611117
KPIT 
19nm NW 
220151Z 00000KT 10SM FEW250 M08/M12 A3049 RMK AO2 SLP354 T10781122
KAFJ 
19nm SW 
220156Z AUTO 00000KT 10SM CLR M11/M12 A3053 RMK AO2 SLPNO T11061117 PWINO FZRANO $
TAF
KAGC 
2nm NE 
211726Z 2118/2218 28005KT P6SM -SHSN OVC025 FM212200 28004KT P6SM BKN120 FM220400 25003KT P6SM SKC FM221100 18003KT P6SM SKC
KPIT 
19nm NW 
212100Z 2121/2224 28006KT P6SM BKN025 FM212300 27003KT P6SM SKC FM221600 17003KT P6SM SKC
NOTAMs
Click for the latest NOTAMs
NOTAMs are issued by the DoD/FAA and will open in a separate window not controlled by AirNav.

 

 
 

Would you like to see your business listed on this page?

 If your business provides an interesting product or service to pilots, flight crews, aircraft, or users of the Jefferson Hospital Heliport, you should consider listing it here.  To start the listing process, click on the button below
 
Add a business
 

Other Pages about Jefferson Hospital Heliport

Update a link
 
Copyright © AirNav, LLC. All rights reserved. Privacy Policy  Contact